sensor_id;sensor_type;location;lat;lon;timestamp;temperature;humidity
1083;DHT22;530;51.448;7.238;2022-12-20T00:00:51;10.60;99.90
1083;DHT22;530;51.448;7.238;2022-12-20T00:03:17;10.60;99.90
1083;DHT22;530;51.448;7.238;2022-12-20T00:05:42;10.60;99.90
1083;DHT22;530;51.448;7.238;2022-12-20T00:08:09;10.50;99.90
1083;DHT22;530;51.448;7.238;2022-12-20T00:10:36;10.60;99.90
1083;DHT22;530;51.448;7.238;2022-12-20T00:13:02;10.50;99.90
1083;DHT22;530;51.448;7.238;2022-12-20T00:15:27;10.60;99.90
1083;DHT22;530;51.448;7.238;2022-12-20T00:17:53;10.60;99.90
1083;DHT22;530;51.448;7.238;2022-12-20T00:20:19;10.60;99.90
1083;DHT22;530;51.448;7.238;2022-12-20T00:22:45;10.60;99.90
1083;DHT22;530;51.448;7.238;2022-12-20T00:25:10;10.70;99.90
1083;DHT22;530;51.448;7.238;2022-12-20T00:27:36;10.60;99.90
1083;DHT22;530;51.448;7.238;2022-12-20T00:30:02;10.70;99.90
1083;DHT22;530;51.448;7.238;2022-12-20T00:32:28;10.70;99.90
1083;DHT22;530;51.448;7.238;2022-12-20T00:34:54;10.70;99.90
1083;DHT22;530;51.448;7.238;2022-12-20T00:37:20;10.70;99.90
1083;DHT22;530;51.448;7.238;2022-12-20T00:39:45;10.70;99.90
1083;DHT22;530;51.448;7.238;2022-12-20T00:42:11;10.70;99.90
1083;DHT22;530;51.448;7.238;2022-12-20T00:44:37;10.70;99.90
1083;DHT22;530;51.448;7.238;2022-12-20T00:47:02;10.70;99.90
1083;DHT22;530;51.448;7.238;2022-12-20T00:49:28;10.80;99.90
1083;DHT22;530;51.448;7.238;2022-12-20T00:51:53;10.70;99.90
1083;DHT22;530;51.448;7.238;2022-12-20T00:54:19;10.80;99.90
1083;DHT22;530;51.448;7.238;2022-12-20T00:56:45;10.70;99.90
1083;DHT22;530;51.448;7.238;2022-12-20T00:59:10;10.80;99.90
1083;DHT22;530;51.448;7.238;2022-12-20T01:01:36;10.70;99.90
1083;DHT22;530;51.448;7.238;2022-12-20T01:04:02;10.70;99.90
1083;DHT22;530;51.448;7.238;2022-12-20T01:06:28;10.80;99.90
1083;DHT22;530;51.448;7.238;2022-12-20T01:08:54;10.80;99.90
1083;DHT22;530;51.448;7.238;2022-12-20T01:11:26;10.80;99.90
1083;DHT22;530;51.448;7.238;2022-12-20T01:13:54;10.80;99.90
1083;DHT22;530;51.448;7.238;2022-12-20T01:16:22;10.90;99.90
1083;DHT22;530;51.448;7.238;2022-12-20T01:18:50;10.80;99.90
1083;DHT22;530;51.448;7.238;2022-12-20T01:21:18;10.80;99.90
1083;DHT22;530;51.448;7.238;2022-12-20T01:23:44;10.90;99.90
1083;DHT22;530;51.448;7.238;2022-12-20T01:26:12;10.90;99.90
1083;DHT22;530;51.448;7.238;2022-12-20T01:28:41;11.00;99.90
1083;DHT22;530;51.448;7.238;2022-12-20T01:31:14;11.00;99.90
1083;DHT22;530;51.448;7.238;2022-12-20T01:33:41;11.00;99.90
1083;DHT22;530;51.448;7.238;2022-12-20T01:36:12;11.00;99.90
1083;DHT22;530;51.448;7.238;2022-12-20T01:38:38;11.00;99.90
1083;DHT22;530;51.448;7.238;2022-12-20T01:41:04;11.00;99.90
1083;DHT22;530;51.448;7.238;2022-12-20T01:43:50;11.00;99.90
1083;DHT22;530;51.448;7.238;2022-12-20T01:46:17;11.00;99.90
1083;DHT22;530;51.448;7.238;2022-12-20T01:48:47;11.00;99.90
1083;DHT22;530;51.448;7.238;2022-12-20T01:51:14;11.00;99.90
1083;DHT22;530;51.448;7.238;2022-12-20T01:53:40;11.00;99.90
1083;DHT22;530;51.448;7.238;2022-12-20T01:56:06;11.00;99.90
1083;DHT22;530;51.448;7.238;2022-12-20T01:58:33;11.00;99.90
1083;DHT22;530;51.448;7.238;2022-12-20T02:01:01;11.00;99.90
1083;DHT22;530;51.448;7.238;2022-12-20T02:03:30;11.00;99.90
1083;DHT22;530;51.448;7.238;2022-12-20T02:05:56;11.00;99.90
1083;DHT22;530;51.448;7.238;2022-12-20T02:08:22;11.00;99.90
1083;DHT22;530;51.448;7.238;2022-12-20T02:16:06;11.00;99.90
1083;DHT22;530;51.448;7.238;2022-12-20T02:18:37;10.90;99.90
1083;DHT22;530;51.448;7.238;2022-12-20T02:21:32;10.90;99.90
1083;DHT22;530;51.448;7.238;2022-12-20T02:32:49;10.80;99.90
1083;DHT22;530;51.448;7.238;2022-12-20T02:35:22;10.80;99.90
1083;DHT22;530;51.448;7.238;2022-12-20T02:37:54;10.80;99.90
1083;DHT22;530;51.448;7.238;2022-12-20T02:40:27;10.70;99.90
1083;DHT22;530;51.448;7.238;2022-12-20T02:42:58;10.70;99.90
1083;DHT22;530;51.448;7.238;2022-12-20T02:45:30;10.70;99.90
1083;DHT22;530;51.448;7.238;2022-12-20T02:48:07;10.70;99.90
1083;DHT22;530;51.448;7.238;2022-12-20T02:50:37;10.70;99.90
1083;DHT22;530;51.448;7.238;2022-12-20T02:53:05;10.70;99.90
1083;DHT22;530;51.448;7.238;2022-12-20T03:00:52;10.60;99.90
1083;DHT22;530;51.448;7.238;2022-12-20T03:03:20;10.60;99.90
1083;DHT22;530;51.448;7.238;2022-12-20T03:05:54;10.60;99.90
1083;DHT22;530;51.448;7.238;2022-12-20T03:08:20;10.60;99.90
1083;DHT22;530;51.448;7.238;2022-12-20T03:10:46;10.50;99.90
1083;DHT22;530;51.448;7.238;2022-12-20T03:13:12;10.60;99.90
1083;DHT22;530;51.448;7.238;2022-12-20T03:15:38;10.50;99.90
1083;DHT22;530;51.448;7.238;2022-12-20T03:18:03;10.50;99.90
1083;DHT22;530;51.448;7.238;2022-12-20T03:20:29;10.50;99.90
1083;DHT22;530;51.448;7.238;2022-12-20T03:22:55;10.50;99.90
1083;DHT22;530;51.448;7.238;2022-12-20T03:25:20;10.50;99.90
1083;DHT22;530;51.448;7.238;2022-12-20T03:27:46;10.50;99.90
1083;DHT22;530;51.448;7.238;2022-12-20T03:30:12;10.50;99.90
1083;DHT22;530;51.448;7.238;2022-12-20T03:32:38;10.40;99.90
1083;DHT22;530;51.448;7.238;2022-12-20T03:35:04;10.40;99.90
1083;DHT22;530;51.448;7.238;2022-12-20T03:37:30;10.40;99.90
1083;DHT22;530;51.448;7.238;2022-12-20T03:39:55;10.30;99.90
1083;DHT22;530;51.448;7.238;2022-12-20T03:42:21;10.30;99.90
1083;DHT22;530;51.448;7.238;2022-12-20T03:44:47;10.30;99.90
1083;DHT22;530;51.448;7.238;2022-12-20T03:47:12;10.20;99.90
1083;DHT22;530;51.448;7.238;2022-12-20T03:49:38;10.20;99.90
1083;DHT22;530;51.448;7.238;2022-12-20T03:52:04;10.20;99.90
1083;DHT22;530;51.448;7.238;2022-12-20T03:54:29;10.30;99.90
1083;DHT22;530;51.448;7.238;2022-12-20T03:56:55;10.20;99.90
1083;DHT22;530;51.448;7.238;2022-12-20T03:59:20;10.20;99.90
1083;DHT22;530;51.448;7.238;2022-12-20T04:01:46;10.20;99.90
1083;DHT22;530;51.448;7.238;2022-12-20T04:04:13;10.10;99.90
1083;DHT22;530;51.448;7.238;2022-12-20T04:06:40;10.20;99.90
1083;DHT22;530;51.448;7.238;2022-12-20T04:09:06;10.20;99.90
1083;DHT22;530;51.448;7.238;2022-12-20T04:11:31;10.20;99.90
1083;DHT22;530;51.448;7.238;2022-12-20T04:13:57;10.20;99.90
1083;DHT22;530;51.448;7.238;2022-12-20T04:16:26;10.10;99.90
1083;DHT22;530;51.448;7.238;2022-12-20T04:18:52;10.20;99.90
1083;DHT22;530;51.448;7.238;2022-12-20T04:21:26;10.10;99.90
1083;DHT22;530;51.448;7.238;2022-12-20T04:23:52;10.10;99.90
1083;DHT22;530;51.448;7.238;2022-12-20T04:26:19;10.10;99.90
1083;DHT22;530;51.448;7.238;2022-12-20T04:28:44;10.10;99.90
1083;DHT22;530;51.448;7.238;2022-12-20T04:31:10;10.10;99.90
1083;DHT22;530;51.448;7.238;2022-12-20T04:33:36;10.10;99.90
1083;DHT22;530;51.448;7.238;2022-12-20T04:36:02;10.00;99.90
1083;DHT22;530;51.448;7.238;2022-12-20T04:38:28;10.00;99.90
1083;DHT22;530;51.448;7.238;2022-12-20T04:40:54;10.00;99.90
1083;DHT22;530;51.448;7.238;2022-12-20T04:43:21;10.00;99.90
1083;DHT22;530;51.448;7.238;2022-12-20T04:45:49;10.00;99.90
1083;DHT22;530;51.448;7.238;2022-12-20T04:48:15;10.00;99.90
1083;DHT22;530;51.448;7.238;2022-12-20T04:50:41;10.00;99.90
1083;DHT22;530;51.448;7.238;2022-12-20T04:53:10;10.00;99.90
1083;DHT22;530;51.448;7.238;2022-12-20T04:55:54;9.90;99.90
1083;DHT22;530;51.448;7.238;2022-12-20T04:58:19;9.90;99.90
1083;DHT22;530;51.448;7.238;2022-12-20T05:00:45;9.90;99.90
1083;DHT22;530;51.448;7.238;2022-12-20T05:03:11;9.90;99.90
1083;DHT22;530;51.448;7.238;2022-12-20T05:05:36;9.90;99.90
1083;DHT22;530;51.448;7.238;2022-12-20T05:08:03;9.90;99.90
1083;DHT22;530;51.448;7.238;2022-12-20T05:10:29;9.90;99.90
1083;DHT22;530;51.448;7.238;2022-12-20T05:12:54;9.90;99.90
1083;DHT22;530;51.448;7.238;2022-12-20T05:15:20;9.90;99.90
1083;DHT22;530;51.448;7.238;2022-12-20T05:17:46;9.90;99.90
1083;DHT22;530;51.448;7.238;2022-12-20T05:20:12;9.90;99.90
1083;DHT22;530;51.448;7.238;2022-12-20T05:22:38;9.90;99.90
1083;DHT22;530;51.448;7.238;2022-12-20T05:25:22;9.90;99.90
1083;DHT22;530;51.448;7.238;2022-12-20T05:28:06;9.90;99.90
1083;DHT22;530;51.448;7.238;2022-12-20T05:30:32;9.90;99.90
1083;DHT22;530;51.448;7.238;2022-12-20T05:32:58;9.90;99.90
1083;DHT22;530;51.448;7.238;2022-12-20T05:35:24;9.90;99.90
1083;DHT22;530;51.448;7.238;2022-12-20T05:37:49;9.90;99.90
1083;DHT22;530;51.448;7.238;2022-12-20T05:40:15;9.90;99.90
1083;DHT22;530;51.448;7.238;2022-12-20T05:42:42;9.90;99.90
1083;DHT22;530;51.448;7.238;2022-12-20T05:45:08;9.90;99.90
1083;DHT22;530;51.448;7.238;2022-12-20T05:47:34;9.90;99.90
1083;DHT22;530;51.448;7.238;2022-12-20T05:49:59;9.90;99.90
1083;DHT22;530;51.448;7.238;2022-12-20T05:52:25;9.90;99.90
1083;DHT22;530;51.448;7.238;2022-12-20T05:54:51;9.90;99.90
1083;DHT22;530;51.448;7.238;2022-12-20T05:57:17;9.80;99.90
1083;DHT22;530;51.448;7.238;2022-12-20T05:59:43;9.80;99.90
1083;DHT22;530;51.448;7.238;2022-12-20T06:02:09;9.80;99.90
1083;DHT22;530;51.448;7.238;2022-12-20T06:04:36;9.80;99.90
1083;DHT22;530;51.448;7.238;2022-12-20T06:07:04;9.80;99.90
1083;DHT22;530;51.448;7.238;2022-12-20T06:09:30;9.90;99.90
1083;DHT22;530;51.448;7.238;2022-12-20T06:11:56;9.90;99.90
1083;DHT22;530;51.448;7.238;2022-12-20T06:14:22;9.90;99.90
1083;DHT22;530;51.448;7.238;2022-12-20T06:16:48;9.90;99.90
1083;DHT22;530;51.448;7.238;2022-12-20T06:19:14;10.00;99.90
1083;DHT22;530;51.448;7.238;2022-12-20T06:21:40;9.90;99.90
1083;DHT22;530;51.448;7.238;2022-12-20T06:24:06;9.90;99.90
1083;DHT22;530;51.448;7.238;2022-12-20T06:26:32;9.90;99.90
1083;DHT22;530;51.448;7.238;2022-12-20T06:29:05;9.90;99.90
1083;DHT22;530;51.448;7.238;2022-12-20T06:31:34;9.90;99.90
1083;DHT22;530;51.448;7.238;2022-12-20T06:34:00;9.90;99.90
1083;DHT22;530;51.448;7.238;2022-12-20T06:36:26;9.90;99.90
1083;DHT22;530;51.448;7.238;2022-12-20T06:38:52;10.00;99.90
1083;DHT22;530;51.448;7.238;2022-12-20T06:41:18;10.00;99.90
1083;DHT22;530;51.448;7.238;2022-12-20T06:43:43;10.00;99.90
1083;DHT22;530;51.448;7.238;2022-12-20T06:46:09;9.90;99.90
1083;DHT22;530;51.448;7.238;2022-12-20T06:48:35;10.10;99.90
1083;DHT22;530;51.448;7.238;2022-12-20T06:51:00;10.00;99.90
1083;DHT22;530;51.448;7.238;2022-12-20T06:53:26;9.90;99.90
1083;DHT22;530;51.448;7.238;2022-12-20T06:55:52;10.10;99.90
1083;DHT22;530;51.448;7.238;2022-12-20T06:58:19;10.00;99.90
1083;DHT22;530;51.448;7.238;2022-12-20T07:00:45;10.00;99.90
1083;DHT22;530;51.448;7.238;2022-12-20T07:03:10;10.00;99.90
1083;DHT22;530;51.448;7.238;2022-12-20T07:05:36;10.00;99.90
1083;DHT22;530;51.448;7.238;2022-12-20T07:08:03;10.10;99.90
1083;DHT22;530;51.448;7.238;2022-12-20T07:10:33;10.10;99.90
1083;DHT22;530;51.448;7.238;2022-12-20T07:12:59;10.10;99.90
1083;DHT22;530;51.448;7.238;2022-12-20T07:15:24;10.10;99.90
1083;DHT22;530;51.448;7.238;2022-12-20T07:17:50;10.10;99.90
1083;DHT22;530;51.448;7.238;2022-12-20T07:20:16;10.10;99.90
1083;DHT22;530;51.448;7.238;2022-12-20T07:22:42;10.10;99.90
1083;DHT22;530;51.448;7.238;2022-12-20T07:25:09;10.10;99.90
1083;DHT22;530;51.448;7.238;2022-12-20T07:27:34;10.10;99.90
1083;DHT22;530;51.448;7.238;2022-12-20T07:30:00;10.10;99.90
1083;DHT22;530;51.448;7.238;2022-12-20T07:32:26;10.10;99.90
1083;DHT22;530;51.448;7.238;2022-12-20T07:34:51;10.10;99.90
1083;DHT22;530;51.448;7.238;2022-12-20T07:37:18;10.10;99.90
1083;DHT22;530;51.448;7.238;2022-12-20T07:39:43;10.10;99.90
1083;DHT22;530;51.448;7.238;2022-12-20T07:42:10;10.10;99.90
1083;DHT22;530;51.448;7.238;2022-12-20T07:44:35;10.10;99.90
1083;DHT22;530;51.448;7.238;2022-12-20T07:47:01;10.10;99.90
1083;DHT22;530;51.448;7.238;2022-12-20T07:49:27;10.10;99.90
1083;DHT22;530;51.448;7.238;2022-12-20T07:51:55;10.10;99.90
1083;DHT22;530;51.448;7.238;2022-12-20T07:54:30;10.10;99.90
1083;DHT22;530;51.448;7.238;2022-12-20T07:57:00;10.10;99.90
1083;DHT22;530;51.448;7.238;2022-12-20T07:59:37;10.10;99.90
1083;DHT22;530;51.448;7.238;2022-12-20T08:02:04;10.20;99.90
1083;DHT22;530;51.448;7.238;2022-12-20T08:04:31;10.20;99.90
1083;DHT22;530;51.448;7.238;2022-12-20T08:06:59;10.20;99.90
1083;DHT22;530;51.448;7.238;2022-12-20T08:09:29;10.20;99.90
1083;DHT22;530;51.448;7.238;2022-12-20T08:11:57;10.30;99.90
1083;DHT22;530;51.448;7.238;2022-12-20T08:14:23;10.30;99.90
1083;DHT22;530;51.448;7.238;2022-12-20T08:16:49;10.30;99.90
1083;DHT22;530;51.448;7.238;2022-12-20T08:19:15;10.30;99.90
1083;DHT22;530;51.448;7.238;2022-12-20T08:21:40;10.30;99.90
1083;DHT22;530;51.448;7.238;2022-12-20T08:24:06;10.30;99.90
1083;DHT22;530;51.448;7.238;2022-12-20T08:26:39;10.30;99.90
1083;DHT22;530;51.448;7.238;2022-12-20T08:29:06;10.30;99.90
1083;DHT22;530;51.448;7.238;2022-12-20T08:31:36;10.30;99.90
1083;DHT22;530;51.448;7.238;2022-12-20T08:34:02;10.30;99.90
1083;DHT22;530;51.448;7.238;2022-12-20T08:36:28;10.30;99.90
1083;DHT22;530;51.448;7.238;2022-12-20T08:38:53;10.30;99.90
1083;DHT22;530;51.448;7.238;2022-12-20T08:41:19;10.30;99.90
1083;DHT22;530;51.448;7.238;2022-12-20T08:43:45;10.40;99.90
1083;DHT22;530;51.448;7.238;2022-12-20T08:46:11;10.40;99.90
1083;DHT22;530;51.448;7.238;2022-12-20T08:48:37;10.40;99.90
1083;DHT22;530;51.448;7.238;2022-12-20T08:51:06;10.40;99.90
1083;DHT22;530;51.448;7.238;2022-12-20T08:53:33;10.50;99.90
1083;DHT22;530;51.448;7.238;2022-12-20T08:56:05;10.50;99.90
1083;DHT22;530;51.448;7.238;2022-12-20T08:58:31;10.50;99.90
1083;DHT22;530;51.448;7.238;2022-12-20T09:01:00;10.50;99.90
1083;DHT22;530;51.448;7.238;2022-12-20T09:03:29;10.50;99.90
1083;DHT22;530;51.448;7.238;2022-12-20T09:05:56;10.50;99.90
1083;DHT22;530;51.448;7.238;2022-12-20T09:08:22;10.50;99.90
1083;DHT22;530;51.448;7.238;2022-12-20T09:10:48;10.50;99.90
1083;DHT22;530;51.448;7.238;2022-12-20T09:13:14;10.50;99.90
1083;DHT22;530;51.448;7.238;2022-12-20T09:15:39;10.60;99.90
1083;DHT22;530;51.448;7.238;2022-12-20T09:18:06;10.60;99.90
1083;DHT22;530;51.448;7.238;2022-12-20T09:20:32;10.60;99.90
1083;DHT22;530;51.448;7.238;2022-12-20T09:22:58;10.60;99.90
1083;DHT22;530;51.448;7.238;2022-12-20T09:25:25;10.60;99.90
1083;DHT22;530;51.448;7.238;2022-12-20T09:27:52;10.70;99.90
1083;DHT22;530;51.448;7.238;2022-12-20T09:30:23;10.70;99.90
1083;DHT22;530;51.448;7.238;2022-12-20T09:32:49;10.70;99.90
1083;DHT22;530;51.448;7.238;2022-12-20T09:35:14;10.70;99.90
1083;DHT22;530;51.448;7.238;2022-12-20T09:37:40;10.60;99.90
1083;DHT22;530;51.448;7.238;2022-12-20T09:40:16;10.70;99.90
1083;DHT22;530;51.448;7.238;2022-12-20T09:42:42;10.70;99.90
1083;DHT22;530;51.448;7.238;2022-12-20T09:45:11;10.70;99.90
1083;DHT22;530;51.448;7.238;2022-12-20T09:47:41;10.70;99.90
1083;DHT22;530;51.448;7.238;2022-12-20T09:50:10;10.70;99.90
1083;DHT22;530;51.448;7.238;2022-12-20T09:56:06;10.70;99.90
1083;DHT22;530;51.448;7.238;2022-12-20T09:58:47;10.70;99.90
1083;DHT22;530;51.448;7.238;2022-12-20T10:01:26;10.70;99.90
1083;DHT22;530;51.448;7.238;2022-12-20T10:03:53;10.70;99.90
1083;DHT22;530;51.448;7.238;2022-12-20T10:07:01;10.80;99.90
1083;DHT22;530;51.448;7.238;2022-12-20T10:12:33;10.80;99.90
1083;DHT22;530;51.448;7.238;2022-12-20T10:23:16;11.20;99.90
1083;DHT22;530;51.448;7.238;2022-12-20T10:25:42;11.20;99.90
1083;DHT22;530;51.448;7.238;2022-12-20T10:28:14;11.20;99.90
1083;DHT22;530;51.448;7.238;2022-12-20T10:30:41;11.20;99.90
1083;DHT22;530;51.448;7.238;2022-12-20T10:33:20;11.20;99.90
1083;DHT22;530;51.448;7.238;2022-12-20T10:35:46;11.10;99.90
1083;DHT22;530;51.448;7.238;2022-12-20T10:38:13;11.10;99.90
1083;DHT22;530;51.448;7.238;2022-12-20T10:41:01;11.10;99.90
1083;DHT22;530;51.448;7.238;2022-12-20T10:43:39;11.10;99.90
1083;DHT22;530;51.448;7.238;2022-12-20T10:46:07;11.10;99.90
1083;DHT22;530;51.448;7.238;2022-12-20T10:48:38;11.10;99.90
1083;DHT22;530;51.448;7.238;2022-12-20T10:53:52;11.20;99.90
1083;DHT22;530;51.448;7.238;2022-12-20T10:56:32;11.30;99.90
1083;DHT22;530;51.448;7.238;2022-12-20T11:01:30;11.30;99.90
1083;DHT22;530;51.448;7.238;2022-12-20T11:04:04;11.40;99.90
1083;DHT22;530;51.448;7.238;2022-12-20T11:12:12;11.40;99.90
1083;DHT22;530;51.448;7.238;2022-12-20T11:14:39;11.50;99.90
1083;DHT22;530;51.448;7.238;2022-12-20T11:17:27;11.50;99.90
1083;DHT22;530;51.448;7.238;2022-12-20T11:31:53;11.70;99.90
1083;DHT22;530;51.448;7.238;2022-12-20T11:42:14;11.80;99.90
1083;DHT22;530;51.448;7.238;2022-12-20T11:44:58;11.80;99.90
1083;DHT22;530;51.448;7.238;2022-12-20T11:48:13;11.80;99.90
1083;DHT22;530;51.448;7.238;2022-12-20T11:50:39;11.80;99.90
1083;DHT22;530;51.448;7.238;2022-12-20T11:53:18;11.70;99.90
1083;DHT22;530;51.448;7.238;2022-12-20T11:55:48;11.70;99.90
1083;DHT22;530;51.448;7.238;2022-12-20T11:58:24;11.70;99.90
1083;DHT22;530;51.448;7.238;2022-12-20T12:00:59;11.70;99.90
1083;DHT22;530;51.448;7.238;2022-12-20T12:03:33;11.70;99.90
1083;DHT22;530;51.448;7.238;2022-12-20T12:06:15;11.70;99.90
1083;DHT22;530;51.448;7.238;2022-12-20T12:09:34;11.70;99.90
1083;DHT22;530;51.448;7.238;2022-12-20T12:11:59;11.70;99.90
1083;DHT22;530;51.448;7.238;2022-12-20T12:14:50;11.60;99.90
1083;DHT22;530;51.448;7.238;2022-12-20T12:17:44;11.60;99.90
1083;DHT22;530;51.448;7.238;2022-12-20T12:20:32;11.60;99.90
1083;DHT22;530;51.448;7.238;2022-12-20T12:23:23;11.60;99.90
1083;DHT22;530;51.448;7.238;2022-12-20T12:25:51;11.60;99.90
1083;DHT22;530;51.448;7.238;2022-12-20T12:28:18;11.60;99.90
1083;DHT22;530;51.448;7.238;2022-12-20T12:30:56;11.60;99.90
1083;DHT22;530;51.448;7.238;2022-12-20T12:33:30;11.60;99.90
1083;DHT22;530;51.448;7.238;2022-12-20T12:44:24;11.50;99.90
1083;DHT22;530;51.448;7.238;2022-12-20T12:47:05;11.50;99.90
1083;DHT22;530;51.448;7.238;2022-12-20T12:49:33;11.60;99.90
1083;DHT22;530;51.448;7.238;2022-12-20T12:52:00;11.60;99.90
1083;DHT22;530;51.448;7.238;2022-12-20T12:54:29;11.60;99.90
1083;DHT22;530;51.448;7.238;2022-12-20T13:09:57;11.60;99.90
1083;DHT22;530;51.448;7.238;2022-12-20T13:20:28;11.60;99.90
1083;DHT22;530;51.448;7.238;2022-12-20T13:25:32;11.50;99.90
1083;DHT22;530;51.448;7.238;2022-12-20T13:33:48;11.50;99.90
1083;DHT22;530;51.448;7.238;2022-12-20T13:41:34;11.40;99.90
1083;DHT22;530;51.448;7.238;2022-12-20T13:46:46;11.30;99.90
1083;DHT22;530;51.448;7.238;2022-12-20T13:49:24;11.30;99.90
1083;DHT22;530;51.448;7.238;2022-12-20T13:54:43;11.20;99.90
1083;DHT22;530;51.448;7.238;2022-12-20T13:57:14;11.20;99.90
1083;DHT22;530;51.448;7.238;2022-12-20T13:59:47;11.20;99.90
1083;DHT22;530;51.448;7.238;2022-12-20T14:02:33;11.20;99.90
1083;DHT22;530;51.448;7.238;2022-12-20T14:07:38;11.20;99.90
1083;DHT22;530;51.448;7.238;2022-12-20T14:10:17;11.10;99.90
1083;DHT22;530;51.448;7.238;2022-12-20T14:12:45;11.10;99.90
1083;DHT22;530;51.448;7.238;2022-12-20T14:15:25;11.10;99.90
1083;DHT22;530;51.448;7.238;2022-12-20T14:17:51;11.00;99.90
1083;DHT22;530;51.448;7.238;2022-12-20T14:20:28;11.00;99.90
1083;DHT22;530;51.448;7.238;2022-12-20T14:23:04;11.00;99.90
1083;DHT22;530;51.448;7.238;2022-12-20T14:28:14;11.00;99.90
1083;DHT22;530;51.448;7.238;2022-12-20T14:30:42;11.00;99.90
1083;DHT22;530;51.448;7.238;2022-12-20T14:33:20;11.00;99.90
1083;DHT22;530;51.448;7.238;2022-12-20T14:35:49;11.00;99.90
1083;DHT22;530;51.448;7.238;2022-12-20T14:38:24;11.00;99.90
1083;DHT22;530;51.448;7.238;2022-12-20T14:40:53;11.00;99.90
1083;DHT22;530;51.448;7.238;2022-12-20T14:43:32;10.90;99.90
1083;DHT22;530;51.448;7.238;2022-12-20T14:46:15;10.90;99.90
1083;DHT22;530;51.448;7.238;2022-12-20T14:48:42;10.90;99.90
1083;DHT22;530;51.448;7.238;2022-12-20T14:51:08;10.90;99.90
1083;DHT22;530;51.448;7.238;2022-12-20T14:53:34;10.90;99.90
1083;DHT22;530;51.448;7.238;2022-12-20T14:56:00;10.90;99.90
1083;DHT22;530;51.448;7.238;2022-12-20T14:58:29;10.90;99.90
1083;DHT22;530;51.448;7.238;2022-12-20T15:01:17;10.90;99.90
1083;DHT22;530;51.448;7.238;2022-12-20T15:03:54;10.90;99.90
1083;DHT22;530;51.448;7.238;2022-12-20T15:06:38;10.90;99.90
1083;DHT22;530;51.448;7.238;2022-12-20T15:09:05;10.80;99.90
1083;DHT22;530;51.448;7.238;2022-12-20T15:11:33;10.80;99.90
1083;DHT22;530;51.448;7.238;2022-12-20T15:13:59;10.80;99.90
1083;DHT22;530;51.448;7.238;2022-12-20T15:16:27;10.80;99.90
1083;DHT22;530;51.448;7.238;2022-12-20T15:19:01;10.80;99.90
1083;DHT22;530;51.448;7.238;2022-12-20T15:21:38;10.80;99.90
1083;DHT22;530;51.448;7.238;2022-12-20T15:24:12;10.80;99.90
1083;DHT22;530;51.448;7.238;2022-12-20T15:26:39;10.80;99.90
1083;DHT22;530;51.448;7.238;2022-12-20T15:29:05;10.70;99.90
1083;DHT22;530;51.448;7.238;2022-12-20T15:31:33;10.70;99.90
1083;DHT22;530;51.448;7.238;2022-12-20T15:34:05;10.70;99.90
1083;DHT22;530;51.448;7.238;2022-12-20T15:36:36;10.70;99.90
1083;DHT22;530;51.448;7.238;2022-12-20T15:39:02;10.70;99.90
1083;DHT22;530;51.448;7.238;2022-12-20T15:41:31;10.70;99.90
1083;DHT22;530;51.448;7.238;2022-12-20T15:44:05;10.70;99.90
1083;DHT22;530;51.448;7.238;2022-12-20T15:46:32;10.70;99.90
1083;DHT22;530;51.448;7.238;2022-12-20T15:48:58;10.70;99.90
1083;DHT22;530;51.448;7.238;2022-12-20T15:51:30;10.70;99.90
1083;DHT22;530;51.448;7.238;2022-12-20T15:53:57;10.70;99.90
1083;DHT22;530;51.448;7.238;2022-12-20T15:56:26;10.70;99.90
1083;DHT22;530;51.448;7.238;2022-12-20T15:58:52;10.70;99.90
1083;DHT22;530;51.448;7.238;2022-12-20T16:01:33;10.60;99.90
1083;DHT22;530;51.448;7.238;2022-12-20T16:03:59;10.60;99.90
1083;DHT22;530;51.448;7.238;2022-12-20T16:06:25;10.60;99.90
1083;DHT22;530;51.448;7.238;2022-12-20T16:08:50;10.60;99.90
1083;DHT22;530;51.448;7.238;2022-12-20T16:11:23;10.60;99.90
1083;DHT22;530;51.448;7.238;2022-12-20T16:13:49;10.60;99.90
1083;DHT22;530;51.448;7.238;2022-12-20T16:16:29;10.60;99.90
1083;DHT22;530;51.448;7.238;2022-12-20T16:18:56;10.60;99.90
1083;DHT22;530;51.448;7.238;2022-12-20T16:21:44;10.60;99.90
1083;DHT22;530;51.448;7.238;2022-12-20T16:24:12;10.60;99.90
1083;DHT22;530;51.448;7.238;2022-12-20T16:26:38;10.60;99.90
1083;DHT22;530;51.448;7.238;2022-12-20T16:29:04;10.60;99.90
1083;DHT22;530;51.448;7.238;2022-12-20T16:31:35;10.60;99.90
1083;DHT22;530;51.448;7.238;2022-12-20T16:34:05;10.60;99.90
1083;DHT22;530;51.448;7.238;2022-12-20T16:36:32;10.60;99.90
1083;DHT22;530;51.448;7.238;2022-12-20T16:38:57;10.60;99.90
1083;DHT22;530;51.448;7.238;2022-12-20T16:41:25;10.60;99.90
1083;DHT22;530;51.448;7.238;2022-12-20T16:43:56;10.60;99.90
1083;DHT22;530;51.448;7.238;2022-12-20T16:46:24;10.60;99.90
1083;DHT22;530;51.448;7.238;2022-12-20T16:48:52;10.60;99.90
1083;DHT22;530;51.448;7.238;2022-12-20T16:51:37;10.60;99.90
1083;DHT22;530;51.448;7.238;2022-12-20T16:54:25;10.60;99.90
1083;DHT22;530;51.448;7.238;2022-12-20T16:56:51;10.60;99.90
1083;DHT22;530;51.448;7.238;2022-12-20T16:59:21;10.60;99.90
1083;DHT22;530;51.448;7.238;2022-12-20T17:01:48;10.60;99.90
1083;DHT22;530;51.448;7.238;2022-12-20T17:04:15;10.60;99.90
1083;DHT22;530;51.448;7.238;2022-12-20T17:06:42;10.60;99.90
1083;DHT22;530;51.448;7.238;2022-12-20T17:09:09;10.70;99.90
1083;DHT22;530;51.448;7.238;2022-12-20T17:11:34;10.60;99.90
1083;DHT22;530;51.448;7.238;2022-12-20T17:14:00;10.60;99.90
1083;DHT22;530;51.448;7.238;2022-12-20T17:16:27;10.60;99.90
1083;DHT22;530;51.448;7.238;2022-12-20T17:18:55;10.60;99.90
1083;DHT22;530;51.448;7.238;2022-12-20T17:21:42;10.50;99.90
1083;DHT22;530;51.448;7.238;2022-12-20T17:24:19;10.60;99.90
1083;DHT22;530;51.448;7.238;2022-12-20T17:26:45;10.60;99.90
1083;DHT22;530;51.448;7.238;2022-12-20T17:29:11;10.60;99.90
1083;DHT22;530;51.448;7.238;2022-12-20T17:31:38;10.60;99.90
1083;DHT22;530;51.448;7.238;2022-12-20T17:34:05;10.50;99.90
1083;DHT22;530;51.448;7.238;2022-12-20T17:36:31;10.50;99.90
1083;DHT22;530;51.448;7.238;2022-12-20T17:38:57;10.50;99.90
1083;DHT22;530;51.448;7.238;2022-12-20T17:41:25;10.50;99.90
1083;DHT22;530;51.448;7.238;2022-12-20T17:43:52;10.50;99.90
1083;DHT22;530;51.448;7.238;2022-12-20T17:46:18;10.50;99.90
1083;DHT22;530;51.448;7.238;2022-12-20T17:48:45;10.60;99.90
1083;DHT22;530;51.448;7.238;2022-12-20T17:51:15;10.50;99.90
1083;DHT22;530;51.448;7.238;2022-12-20T17:53:43;10.60;99.90
1083;DHT22;530;51.448;7.238;2022-12-20T17:56:12;10.60;99.90
1083;DHT22;530;51.448;7.238;2022-12-20T17:58:38;10.60;99.90
1083;DHT22;530;51.448;7.238;2022-12-20T18:01:03;10.50;99.90
1083;DHT22;530;51.448;7.238;2022-12-20T18:03:29;10.50;99.90
1083;DHT22;530;51.448;7.238;2022-12-20T18:05:55;10.50;99.90
1083;DHT22;530;51.448;7.238;2022-12-20T18:08:21;10.50;99.90
1083;DHT22;530;51.448;7.238;2022-12-20T18:10:47;10.50;99.90
1083;DHT22;530;51.448;7.238;2022-12-20T18:13:12;10.50;99.90
1083;DHT22;530;51.448;7.238;2022-12-20T18:15:38;10.50;99.90
1083;DHT22;530;51.448;7.238;2022-12-20T18:18:03;10.50;99.90
1083;DHT22;530;51.448;7.238;2022-12-20T18:20:32;10.50;99.90
1083;DHT22;530;51.448;7.238;2022-12-20T18:22:58;10.50;99.90
1083;DHT22;530;51.448;7.238;2022-12-20T18:25:23;10.60;99.90
1083;DHT22;530;51.448;7.238;2022-12-20T18:27:49;10.60;99.90
1083;DHT22;530;51.448;7.238;2022-12-20T18:30:16;10.60;99.90